Aérodrome :
LOGIN :

S'inscrire | Disclaimer

   EN    FR    IT 

 










Légende :    VFR   VFR Marginal   IFR   IFR Intensif   IFR Très Intensif
Visi : 
Plafond : 
>= 8 km
>= 3000ft
5 à 8 km
1000 à 3000 ft
1500m à 5 km
500 à 1000 ft
800 à 1500m
200 à 500 ft
< 800m
< 200 ft
Symboles :   Orages  Brouillard  Fortes neiges  Fortes précipitations  Vent > 20 kt
SIGMETs :   Divers  Orages  Givrage  Turbulence  Onde Orograph.  Cendres Volcan.







- Altitude de l'aérodrome : 16 ft
- Code IATA : AAE


DABB - Annaba-Rabah Bitat

DERNIER METAR :
  • 261630Z 01012KT 8000 FEW023 SCT040 20/16 Q1007

METARs EXPIRÉS :
  • 261600Z 02013KT 8000 FEW023 SCT040 20/16 Q1007
  • 261530Z 01012KT 8000 FEW023 SCT040 20/16 Q1008
  • 261500Z 01015KT 8000 FEW023 SCT040 19/17 Q1007
  • 261430Z 02016KT 8000 FEW023 FEW026TCU SCT033 20/17 Q1007
  • 261400Z 02012KT 8000 FEW023 FEW026TCU SCT033 20/17 Q1008 RETS

TAF TAF DABB
Valide du 26 à 12h jusqu'au 27 à 12h UTC


261100Z 2612/2712 33012KT 9999 FEW020 FEW026TCU SCT030
PROB30
TEMPO 2612/2621 5000 -TSRA FEW020CB
BECMG 2619/2621 VRB02KT
PROB30
TEMPO 2621/2706 3000 BR BKN010
BECMG 2704/2706 33010KT
Pas de NOTAMs connus pour ce terrain.
2 SIGMETs publiés pour la FIR Alger (DAAA) :
 
Orages noyés dans la masse
DAAA SIGMET 3 VALID 261515/261715 DAMM
DAAA ALGER FIR EMBD TS FCST WI N3609 E00612 - N3504 E00626 - N3507 E00428 - N3554 E00432 - N3609 E00612 TOP FL320 MOV NE NC=
Orages noyés dans la masse
DAAA SIGMET 2 VALID 261400/261800 DAMM
DAAA ALGER FIR EMBD TS FCST WI N3620 E00340 - N3525 E00424 - N3348 E00230 - N3234 W00004 - N3419 W00133 - N3620 E00340 TOP FL310 STNR NC=



MET'MAP, la Météo Aéronautique d'un coup d'oeil ! - Copyright ORBIFLY Décembre 2007 - Disclaimer

ORBIFLY MET'MAP TEAM :

Programmation & Développement : Alexandra Zaïnal
Conception & Développement : Baudouin d'Aumeries
Co-Programmation & Développement : Marc-Olivier Méhu
Soutien technique & logistique : Manuel Goepfert

Contact : metmap@orbifly.com




SOURCES & CREDITS :

   NOAA